Time;durP1;ratioP1;P1;durP2;ratioP2;P2;SDS_P1;SDS_P2;PMS_P1;PMS_P2;Temp;Humidity;BMP_temperature;BMP_pressure;BME280_temperature;BME280_humidity;BME280_pressure;Samples;Min_cycle;Max_cycle;Signal;HPM_P1;HPM_P2
2022/09/28 00:02:13;;;;;;;7.80;3.70;;;;;;;8.50;75.71;97335.86;103799;1297;23098;-87
2022/09/28 00:05:14;;;;;;;8.70;3.90;;;;;;;8.54;75.91;97331.52;104030;1297;25468;-84
2022/09/28 00:08:05;;;;;;;11.30;4.70;;;;;;;8.59;75.89;97328.75;104144;1297;22748;-84
2022/09/28 00:10:32;;;;;;;10.80;4.10;;;;;;;8.64;76.25;97327.09;104255;1290;24274;-84
2022/09/28 00:13:49;;;;;;;;;;;;;;;;;;;;;
2022/09/28 00:16:34;;;;;;;9.30;4.50;;;;;;;8.70;76.02;97322.46;105757;1281;22535;-88
2022/09/28 00:19:05;;;;;;;9.50;4.40;;;;;;;8.67;75.96;97321.30;105411;1281;22753;-87
2022/09/28 00:21:36;;;;;;;10.30;3.90;;;;;;;8.64;75.94;97319.77;105698;1281;24531;-85
2022/09/28 00:24:24;;;;;;;8.50;3.60;;;;;;;8.62;76.01;97313.82;106035;1274;24234;-84
2022/09/28 00:27:12;;;;;;;9.00;4.00;;;;;;;8.59;75.75;97310.55;106118;1275;25226;-83
2022/09/28 00:29:43;;;;;;;9.60;3.80;;;;;;;8.60;76.01;97310.30;106169;1274;25207;-83
2022/09/28 00:32:15;;;;;;;10.80;4.10;;;;;;;8.62;75.96;97311.08;106079;1274;23170;-85
2022/09/28 00:34:48;;;;;;;12.40;4.60;;;;;;;8.65;76.02;97307.40;106218;1274;22548;-87
2022/09/28 00:37:25;;;;;;;11.90;4.00;;;;;;;8.63;75.95;97310.65;105993;1274;25431;-87
2022/09/28 00:40:14;;;;;;;8.10;3.60;;;;;;;8.58;76.00;97309.53;106376;1275;25406;-84
2022/09/28 00:42:42;;;;;;;9.50;3.70;;;;;;;8.55;76.13;97305.79;106103;1274;22733;-82
2022/09/28 00:45:24;;;;;;;8.00;3.70;;;;;;;8.54;76.18;97302.42;106246;1275;24474;-84
2022/09/28 00:47:57;;;;;;;7.40;3.40;;;;;;;8.57;76.17;97306.29;106234;1274;22548;-85
2022/09/28 00:50:29;;;;;;;6.60;3.20;;;;;;;8.61;76.14;97307.70;106200;1275;25345;-83
2022/09/28 00:53:22;;;;;;;7.50;3.00;;;;;;;8.65;76.28;97308.87;106161;1274;24214;-87
2022/09/28 00:56:07;;;;;;;7.30;3.30;;;;;;;8.74;76.30;97305.63;106178;1274;22559;-88
2022/09/28 00:58:52;;;;;;;7.60;3.20;;;;;;;8.79;76.28;97305.10;106214;1274;24406;-86
2022/09/28 01:01:24;;;;;;;7.80;3.80;;;;;;;8.83;76.29;97306.49;106262;1274;24492;-84
2022/09/28 01:04:02;;;;;;;8.30;3.40;;;;;;;8.87;76.38;97308.64;106251;1274;22544;-86
2022/09/28 01:06:33;;;;;;;9.60;3.70;;;;;;;8.88;76.31;97301.30;106115;1277;25305;-84
2022/09/28 01:09:15;;;;;;;7.90;4.00;;;;;;;8.88;76.17;97304.48;106043;1274;22735;-87
2022/09/28 01:11:42;;;;;;;9.40;3.50;;;;;;;8.87;76.16;97302.72;106015;1274;24237;-82
2022/09/28 01:14:13;;;;;;;7.70;3.60;;;;;;;8.88;76.12;97305.16;106087;1274;22592;-87
2022/09/28 01:16:59;;;;;;;7.60;3.40;;;;;;;8.90;76.27;97305.63;106063;1274;22545;-85
2022/09/28 01:20:27;;;;;;;8.50;3.30;;;;;;;8.92;76.21;97303.20;106044;1274;25278;-84
2022/09/28 01:23:26;;;;;;;7.50;3.70;;;;;;;8.96;76.38;97303.91;106072;1275;22542;-85
2022/09/28 01:26:16;;;;;;;7.40;3.60;;;;;;;8.97;76.33;97300.61;106014;1276;24293;-82
2022/09/28 01:28:47;;;;;;;7.50;3.80;;;;;;;8.96;76.32;97302.11;106029;1274;22571;-83
2022/09/28 01:31:20;;;;;;;8.60;4.40;;;;;;;8.97;76.32;97297.64;105983;1277;22626;-83
2022/09/28 01:34:10;;;;;;;9.00;4.40;;;;;;;8.95;76.37;97297.25;105894;1274;23167;-86
2022/09/28 01:36:47;;;;;;;8.70;3.80;;;;;;;8.94;76.34;97297.70;106263;1274;22688;-86
2022/09/28 01:39:43;;;;;;;8.80;4.00;;;;;;;8.95;76.46;97293.85;106050;1274;25239;-83
2022/09/28 01:42:21;;;;;;;6.60;3.50;;;;;;;8.97;76.29;97293.55;105995;1274;25308;-83
2022/09/28 01:44:59;;;;;;;8.90;3.80;;;;;;;8.96;76.41;97286.87;106011;1277;22778;-84
2022/09/28 01:47:35;;;;;;;9.20;4.20;;;;;;;9.01;76.47;97284.29;106056;1274;23401;-85
2022/09/28 01:50:18;;;;;;;7.90;4.10;;;;;;;9.05;76.39;97278.73;105984;1275;25240;-86
2022/09/28 01:53:11;;;;;;;7.70;3.80;;;;;;;9.05;76.38;97275.93;105934;1274;25324;-84
2022/09/28 01:55:44;;;;;;;7.20;3.90;;;;;;;9.03;76.28;97277.00;105772;1277;25428;-86
2022/09/28 01:58:37;;;;;;;8.80;4.10;;;;;;;9.04;76.39;97275.82;105917;1274;24329;-84
2022/09/28 02:01:27;;;;;;;8.40;4.00;;;;;;;9.02;76.46;97277.25;105964;1278;25226;-83
2022/09/28 02:04:12;;;;;;;7.70;3.80;;;;;;;9.00;76.36;97274.27;105983;1274;22865;-83
2022/09/28 02:06:55;;;;;;;8.30;3.80;;;;;;;9.01;76.47;97272.20;106290;1274;25381;-83
2022/09/28 02:09:37;;;;;;;7.50;3.60;;;;;;;8.97;76.31;97272.03;106023;1275;22529;-86
2022/09/28 02:12:29;;;;;;;8.10;4.50;;;;;;;8.98;76.35;97272.70;106105;1274;22532;-84
2022/09/28 02:15:11;;;;;;;11.60;4.30;;;;;;;9.01;76.40;97271.88;106099;1275;24202;-85
2022/09/28 02:17:41;;;;;;;9.00;4.40;;;;;;;9.02;76.42;97270.72;106105;1274;24286;-88
2022/09/28 02:20:12;;;;;;;9.10;4.90;;;;;;;8.97;76.36;97266.42;105980;1274;22572;-83
2022/09/28 02:22:55;;;;;;;8.80;4.20;;;;;;;8.89;76.41;97269.73;105959;1277;22567;-86
2022/09/28 02:25:29;;;;;;;8.20;4.20;;;;;;;8.79;76.30;97272.11;106036;1275;23976;-82
2022/09/28 02:28:19;;;;;;;7.90;4.30;;;;;;;8.69;76.18;97270.35;106329;1274;25356;-81
2022/09/28 02:31:02;;;;;;;;;;;;;;;;;;;;;
2022/09/28 02:33:40;;;;;;;8.30;3.60;;;;;;;8.54;76.19;97269.52;106040;1274;22693;-85
2022/09/28 02:36:08;;;;;;;8.90;3.80;;;;;;;8.49;76.40;97263.92;105786;1278;22734;-86
2022/09/28 02:38:41;;;;;;;9.90;3.60;;;;;;;8.49;76.51;97269.95;106041;1277;25241;-82
2022/09/28 02:41:34;;;;;;;8.10;4.20;;;;;;;8.47;76.47;97267.83;105650;1277;22691;-85
2022/09/28 02:44:26;;;;;;;10.40;3.70;;;;;;;8.43;76.41;97268.38;105676;1278;22576;-86
2022/09/28 02:47:19;;;;;;;6.60;3.20;;;;;;;8.40;76.38;97272.05;106078;1277;22568;-82
2022/09/28 02:49:53;;;;;;;7.60;3.30;;;;;;;8.37;76.51;97266.27;105741;1278;22615;-84
2022/09/28 02:52:31;;;;;;;7.90;3.90;;;;;;;8.34;76.59;97259.90;106023;1277;25627;-82
2022/09/28 02:55:45;;;;;;;8.30;3.80;;;;;;;8.34;76.58;97262.02;105989;1276;23914;-83
2022/09/28 02:58:32;;;;;;;8.20;3.50;;;;;;;8.36;76.61;97259.20;105767;1280;22559;-86
2022/09/28 03:01:17;;;;;;;10.10;3.90;;;;;;;8.38;76.66;97261.02;105682;1281;25313;-82
2022/09/28 03:04:04;;;;;;;7.60;3.50;;;;;;;8.41;76.76;97257.23;105762;1280;22617;-82
2022/09/28 03:07:00;;;;;;;7.90;3.40;;;;;;;8.45;76.71;97256.63;105820;1280;26572;-81
2022/09/28 03:10:16;;;;;;;7.20;3.30;;;;;;;8.48;76.87;97256.23;105777;1281;24301;-85
2022/09/28 03:12:48;;;;;;;7.30;3.40;;;;;;;8.47;76.77;97258.76;105864;1280;22535;-81
2022/09/28 03:15:27;;;;;;;6.80;3.30;;;;;;;8.45;76.72;97261.96;105635;1277;22563;-85
2022/09/28 03:18:00;;;;;;;7.50;3.60;;;;;;;8.40;76.62;97257.99;105689;1277;22700;-84
2022/09/28 03:21:01;;;;;;;7.00;3.40;;;;;;;8.35;76.56;97256.67;105600;1277;25345;-82
2022/09/28 03:23:38;;;;;;;6.60;3.00;;;;;;;8.32;76.66;97252.81;105860;1277;22654;-86
2022/09/28 03:26:39;;;;;;;7.20;3.50;;;;;;;8.31;76.63;97253.58;105916;1277;24240;-84
2022/09/28 03:29:25;;;;;;;;;;;;;;;;;;;;;
2022/09/28 03:32:24;;;;;;;8.20;3.70;;;;;;;8.32;76.73;97252.99;105729;1277;25499;-86
2022/09/28 03:35:15;;;;;;;7.60;3.50;;;;;;;8.34;76.83;97249.83;105858;1274;25203;-87
2022/09/28 03:38:18;;;;;;;6.80;3.30;;;;;;;8.33;76.80;97247.23;106239;1274;22620;-87
2022/09/28 03:41:29;;;;;;;;;;;;;;;;;;;;;
2022/09/28 03:44:21;;;;;;;7.00;3.40;;;;;;;8.27;76.70;97248.85;105873;1278;22557;-83
2022/09/28 03:46:52;;;;;;;7.00;3.40;;;;;;;8.28;76.82;97247.56;106085;1274;25302;-82
2022/09/28 03:49:24;;;;;;;10.10;4.20;;;;;;;8.29;76.78;97247.08;105979;1274;22655;-85
2022/09/28 03:52:12;;;;;;;8.60;4.30;;;;;;;8.30;76.74;97248.25;106036;1274;22672;-82
2022/09/28 03:54:42;;;;;;;7.50;4.00;;;;;;;8.31;76.85;97247.09;106170;1274;22547;-86
2022/09/28 03:57:11;;;;;;;7.70;3.70;;;;;;;8.29;76.72;97250.08;106066;1274;23954;-82
2022/09/28 03:59:44;;;;;;;8.20;3.70;;;;;;;8.27;76.76;97245.70;106025;1275;22615;-86
2022/09/28 04:02:14;;;;;;;9.70;3.80;;;;;;;8.23;76.69;97240.75;106089;1274;25514;-82
2022/09/28 04:05:10;;;;;;;8.10;4.10;;;;;;;8.19;76.69;97245.04;105907;1274;25238;-83
2022/09/28 04:08:09;;;;;;;7.10;3.70;;;;;;;8.12;76.70;97242.25;106023;1274;23182;-86
2022/09/28 04:10:38;;;;;;;7.90;3.40;;;;;;;8.09;76.73;97243.20;106006;1273;25238;-82
2022/09/28 04:13:07;;;;;;;8.60;3.70;;;;;;;8.06;76.67;97233.38;105931;1273;22557;-85
2022/09/28 04:15:36;;;;;;;11.60;5.10;;;;;;;8.07;76.81;97241.30;106052;1274;25522;-83
2022/09/28 04:18:13;;;;;;;9.80;4.40;;;;;;;8.05;76.68;97237.27;106294;1274;25359;-83
2022/09/28 04:21:07;;;;;;;9.70;4.40;;;;;;;8.00;76.73;97237.13;106364;1274;25242;-83
2022/09/28 04:23:49;;;;;;;9.30;4.40;;;;;;;7.96;76.78;97235.73;106292;1274;25365;-83
2022/09/28 04:26:22;;;;;;;10.30;5.10;;;;;;;7.91;76.74;97239.98;106207;1274;23368;-83
2022/09/28 04:31:45;;;;;;;9.80;4.60;;;;;;;7.78;76.70;97240.69;106200;1274;24261;-83
2022/09/28 04:34:16;;;;;;;11.80;5.40;;;;;;;7.74;76.78;97240.53;106196;1274;25430;-84
2022/09/28 04:36:45;;;;;;;10.40;4.50;;;;;;;7.70;76.52;97243.24;106133;1274;25349;-82
2022/09/28 04:39:16;;;;;;;10.60;5.10;;;;;;;7.64;76.45;97244.68;106182;1274;25296;-83
2022/09/28 04:41:47;;;;;;;10.50;4.60;;;;;;;7.50;76.45;97242.91;106282;1274;22554;-84
2022/09/28 04:44:15;;;;;;;10.90;4.80;;;;;;;7.33;76.17;97246.36;105963;1274;22560;-82
2022/09/28 04:46:42;;;;;;;10.00;4.20;;;;;;;7.20;76.63;97246.76;105956;1274;25232;-83
2022/09/28 04:49:48;;;;;;;8.20;4.20;;;;;;;7.10;76.62;97243.61;106077;1274;25530;-83
2022/09/28 04:52:30;;;;;;;7.50;3.90;;;;;;;6.95;76.64;97242.53;106034;1274;26521;-83
2022/09/28 04:55:02;;;;;;;10.00;4.40;;;;;;;6.91;76.74;97243.48;106044;1274;24780;-82
2022/09/28 04:57:38;;;;;;;7.80;3.70;;;;;;;6.91;76.80;97244.35;106059;1274;22708;-83
2022/09/28 05:00:11;;;;;;;9.30;4.10;;;;;;;6.95;76.91;97238.15;106142;1274;25210;-83
2022/09/28 05:02:44;;;;;;;8.30;3.30;;;;;;;6.96;76.78;97234.58;105923;1274;25238;-82
2022/09/28 05:05:48;;;;;;;10.30;4.80;;;;;;;6.92;76.87;97233.43;106110;1274;22576;-84
2022/09/28 05:08:47;;;;;;;11.60;5.00;;;;;;;6.89;76.90;97236.33;106237;1274;25455;-81
2022/09/28 05:11:17;;;;;;;9.70;4.90;;;;;;;6.91;77.08;97238.68;106172;1274;22544;-83
2022/09/28 05:13:44;;;;;;;10.20;4.90;;;;;;;6.96;77.25;97237.00;106221;1274;25286;-83
2022/09/28 05:16:19;;;;;;;9.20;5.10;;;;;;;7.01;77.06;97230.55;106095;1274;23749;-82
2022/09/28 05:19:10;;;;;;;12.30;5.40;;;;;;;6.99;77.06;97226.80;105852;1274;22553;-81
2022/09/28 05:21:41;;;;;;;12.10;5.20;;;;;;;6.89;76.65;97225.77;106065;1274;22768;-85
2022/09/28 05:24:09;;;;;;;12.70;5.50;;;;;;;6.86;76.84;97225.83;106317;1274;25232;-83
2022/09/28 05:26:40;;;;;;;11.80;5.50;;;;;;;6.88;77.19;97219.65;106226;1274;23964;-82
2022/09/28 05:29:10;;;;;;;15.80;5.60;;;;;;;6.97;77.36;97220.95;106099;1274;24277;-87
2022/09/28 05:32:00;;;;;;;12.10;5.50;;;;;;;7.06;77.17;97222.33;106374;1274;22579;-86
2022/09/28 05:34:51;;;;;;;15.80;6.90;;;;;;;7.08;77.14;97227.48;106102;1274;22573;-84
2022/09/28 05:37:29;;;;;;;14.50;7.10;;;;;;;7.15;77.29;97226.48;106195;1274;23906;-84
2022/09/28 05:39:57;;;;;;;13.90;7.20;;;;;;;7.22;77.06;97225.66;106241;1274;24208;-83
2022/09/28 05:42:34;;;;;;;18.40;7.50;;;;;;;7.38;77.09;97227.87;106366;1274;22789;-83
2022/09/28 05:45:06;;;;;;;13.60;7.10;;;;;;;7.56;77.15;97225.31;106042;1274;22700;-82
2022/09/28 05:47:41;;;;;;;12.70;5.80;;;;;;;7.79;77.12;97226.87;106143;1274;25315;-83
2022/09/28 05:50:16;;;;;;;15.70;6.70;;;;;;;8.04;77.18;97228.96;106091;1274;22538;-85
2022/09/28 05:52:44;;;;;;;12.00;5.30;;;;;;;8.30;77.17;97231.18;106142;1274;24394;-87
2022/09/28 05:55:19;;;;;;;12.70;5.40;;;;;;;8.54;76.99;97230.78;106032;1274;22610;-83
2022/09/28 05:57:46;;;;;;;8.90;3.80;;;;;;;8.71;77.02;97229.02;106368;1274;25238;-85
2022/09/28 06:00:14;;;;;;;9.00;4.30;;;;;;;8.78;76.74;97221.25;106665;1274;25519;-81
2022/09/28 06:03:06;;;;;;;8.50;3.80;;;;;;;8.79;76.77;97214.64;106357;1274;25502;-83
2022/09/28 06:05:36;;;;;;;8.50;3.30;;;;;;;8.79;76.73;97219.77;106372;1274;23971;-86
2022/09/28 06:08:11;;;;;;;8.10;3.90;;;;;;;8.80;76.83;97218.67;106048;1274;24236;-83
2022/09/28 06:10:43;;;;;;;6.90;3.40;;;;;;;8.84;76.79;97213.41;106389;1274;22534;-88
2022/09/28 06:13:10;;;;;;;7.50;3.10;;;;;;;8.89;76.86;97209.36;106055;1274;22763;-85
2022/09/28 06:15:41;;;;;;;9.00;3.40;;;;;;;8.95;76.86;97206.48;106312;1274;25380;-83
2022/09/28 06:18:12;;;;;;;7.70;3.30;;;;;;;9.07;76.74;97205.83;106351;1274;22540;-82
2022/09/28 06:20:59;;;;;;;8.00;3.50;;;;;;;9.08;76.78;97202.08;106160;1274;25286;-82
2022/09/28 06:23:37;;;;;;;11.10;4.00;;;;;;;9.09;76.92;97198.69;106295;1274;22713;-83
2022/09/28 06:26:06;;;;;;;8.70;4.70;;;;;;;9.07;76.74;97198.70;106342;1274;22550;-83
2022/09/28 06:28:33;;;;;;;10.30;4.80;;;;;;;9.13;76.72;97194.56;106300;1274;25296;-82
2022/09/28 06:31:01;;;;;;;10.00;4.10;;;;;;;9.31;76.91;97192.33;106320;1274;22693;-83
2022/09/28 06:33:29;;;;;;;9.40;4.20;;;;;;;9.49;77.16;97186.59;106370;1274;22541;-83
2022/09/28 06:35:58;;;;;;;11.50;5.90;;;;;;;9.70;77.01;97178.48;106111;1274;24213;-82
2022/09/28 06:38:26;;;;;;;10.80;4.90;;;;;;;9.92;76.81;97176.66;106329;1274;22755;-83
2022/09/28 06:40:58;;;;;;;11.10;4.50;;;;;;;10.14;76.53;97180.02;106388;1274;25330;-82
2022/09/28 06:43:26;;;;;;;8.60;4.00;;;;;;;10.34;76.75;97175.19;106312;1274;25349;-83
2022/09/28 06:46:39;;;;;;;;;;;;;;;;;;;;;
2022/09/28 06:49:54;;;;;;;6.30;3.00;;;;;;;10.83;76.70;97179.23;105824;1279;22572;-88
2022/09/28 06:52:27;;;;;;;7.10;3.60;;;;;;;10.96;76.08;97182.73;106331;1274;25206;-83
2022/09/28 06:55:21;;;;;;;10.70;4.20;;;;;;;11.03;76.09;97181.98;106213;1272;22707;-84
2022/09/28 06:58:06;;;;;;;8.50;3.50;;;;;;;11.11;76.06;97180.05;106194;1274;22567;-84
2022/09/28 07:00:35;;;;;;;7.70;3.10;;;;;;;11.12;75.84;97177.34;106123;1274;22918;-85
2022/09/28 07:03:05;;;;;;;7.10;2.70;;;;;;;11.17;75.82;97175.87;106191;1274;22541;-83
2022/09/28 07:05:54;;;;;;;5.20;2.10;;;;;;;11.25;75.89;97178.40;106068;1274;22600;-88
2022/09/28 07:09:07;;;;;;;;;;;;;;;;;;;;;
2022/09/28 07:12:08;;;;;;;4.80;2.00;;;;;;;11.45;75.76;97175.62;106009;1274;22596;-87
2022/09/28 07:14:48;;;;;;;4.60;1.90;;;;;;;11.56;75.95;97173.12;106134;1274;24926;-82
2022/09/28 07:17:16;;;;;;;4.20;1.80;;;;;;;11.63;75.64;97167.19;105996;1274;22546;-82
2022/09/28 07:20:04;;;;;;;8.00;2.40;;;;;;;11.69;75.66;97166.22;105898;1274;246540;-88
2022/09/28 07:22:34;;;;;;;7.00;2.40;;;;;;;11.74;75.56;97163.44;105994;1275;25296;-82
2022/09/28 07:25:05;;;;;;;6.20;2.10;;;;;;;11.80;75.56;97166.13;105971;1274;25313;-88
2022/09/28 07:27:56;;;;;;;4.60;1.90;;;;;;;11.82;75.41;97166.81;106401;1274;22554;-88
2022/09/28 07:31:42;;;;;;;;;;;;;;;;;;;;;
2022/09/28 07:34:51;;;;;;;;;;;;;;;;;;;;;
2022/09/28 07:37:26;;;;;;;4.20;1.80;;;;;;;11.77;75.31;97160.77;105762;1279;24162;-84
2022/09/28 07:43:23;;;;;;;7.60;1.90;;;;;;;11.65;75.16;97154.92;105909;1280;22552;-83
2022/09/28 07:45:55;;;;;;;6.40;2.40;;;;;;;11.57;75.31;97159.64;105659;1280;22641;-84
2022/09/28 07:48:27;;;;;;;6.40;2.00;;;;;;;11.57;75.25;97160.60;105656;1279;25664;-84
2022/09/28 07:51:12;;;;;;;7.00;2.30;;;;;;;11.59;75.17;97160.93;105769;1279;22544;-83
2022/09/28 07:53:44;;;;;;;7.50;2.20;;;;;;;11.65;75.18;97164.17;105805;1280;25247;-86
2022/09/28 07:56:24;;;;;;;5.50;1.90;;;;;;;11.75;74.96;97168.52;105906;1280;24317;-87
2022/09/28 07:59:02;;;;;;;5.30;1.80;;;;;;;11.76;74.99;97161.83;105887;1279;23906;-85
2022/09/28 08:01:51;;;;;;;6.20;2.10;;;;;;;11.74;74.89;97159.70;105830;1279;24775;-86
2022/09/28 08:04:22;;;;;;;5.00;1.90;;;;;;;11.79;74.98;97159.38;105877;1274;26584;-84
2022/09/28 08:06:59;;;;;;;3.40;1.40;;;;;;;11.79;74.57;97154.86;106147;1274;25307;-82
2022/09/28 08:09:26;;;;;;;6.30;2.00;;;;;;;11.84;74.79;97154.32;106070;1274;23034;-87
2022/09/28 08:12:20;;;;;;;16.30;7.30;;;;;;;11.95;74.87;97151.53;106117;1274;22633;-85
2022/09/28 08:14:59;;;;;;;5.70;2.10;;;;;;;12.11;74.78;97153.58;106158;1274;22667;-85
2022/09/28 08:17:54;;;;;;;7.40;2.20;;;;;;;12.17;74.56;97146.36;106044;1274;22706;-86
2022/09/28 08:23:53;;;;;;;14.70;6.00;;;;;;;12.29;74.39;97145.36;106250;1274;25229;-84
2022/09/28 08:26:27;;;;;;;7.50;2.40;;;;;;;12.43;74.61;97147.36;106356;1273;23971;-86
2022/09/28 08:28:58;;;;;;;17.80;9.50;;;;;;;12.58;74.64;97146.48;106108;1274;22577;-88
2022/09/28 08:31:49;;;;;;;10.10;4.00;;;;;;;12.74;74.66;97145.67;105898;1274;23872;-89
2022/09/28 08:34:44;;;;;;;8.80;2.80;;;;;;;12.85;74.40;97140.19;106203;1274;25437;-85
2022/09/28 08:37:16;;;;;;;11.10;5.40;;;;;;;12.99;74.60;97130.36;106113;1274;25238;-84
2022/09/28 08:40:19;;;;;;;8.20;3.00;;;;;;;13.22;74.39;97128.05;106196;1274;22532;-84
2022/09/28 08:43:47;;;;;;;3.80;1.50;;;;;;;13.34;73.99;97134.02;105896;1274;24227;-85
2022/09/28 08:46:44;;;;;;;6.00;2.20;;;;;;;13.36;73.79;97134.84;106438;1273;22511;-85
2022/09/28 08:49:36;;;;;;;7.00;3.00;;;;;;;13.36;73.75;97133.77;106206;1274;24243;-90
2022/09/28 08:52:32;;;;;;;8.00;3.50;;;;;;;13.37;73.63;97129.60;106106;1274;25232;-85
2022/09/28 08:55:38;;;;;;;20.20;12.90;;;;;;;13.40;73.70;97128.86;105885;1274;25483;-85
2022/09/28 08:58:21;;;;;;;7.80;3.60;;;;;;;13.47;73.70;97130.37;106129;1274;25330;-86
2022/09/28 09:00:54;;;;;;;6.10;1.80;;;;;;;13.47;73.47;97122.99;106078;1274;22532;-83
2022/09/28 09:03:40;;;;;;;10.00;4.40;;;;;;;13.43;73.45;97121.91;106077;1274;25235;-85
2022/09/28 09:07:06;;;;;;;12.10;4.50;;;;;;;13.39;73.21;97125.95;105927;1274;22725;-90
2022/09/28 09:10:15;;;;;;;;;;;;;;;;;;;;;
2022/09/28 09:13:02;;;;;;;13.40;6.80;;;;;;;13.33;73.30;97123.33;106465;1273;22556;-86
2022/09/28 09:15:58;;;;;;;10.60;5.30;;;;;;;13.40;73.34;97123.06;106140;1274;24214;-86
2022/09/28 09:19:16;;;;;;;7.70;3.20;;;;;;;13.50;73.25;97123.63;105917;1274;22621;-85
2022/09/28 09:22:01;;;;;;;21.50;12.70;;;;;;;13.71;73.27;97122.55;106269;1274;22576;-85
2022/09/28 09:25:06;;;;;;;45.00;24.00;;;;;;;13.81;73.07;97123.23;106110;1274;22780;-90
2022/09/28 09:27:47;;;;;;;28.40;16.30;;;;;;;13.81;72.84;97123.03;106172;1274;25376;-85
2022/09/28 09:30:18;;;;;;;7.70;3.80;;;;;;;13.70;72.61;97121.59;106094;1274;24406;-88
2022/09/28 09:33:25;;;;;;;9.20;3.80;;;;;;;13.52;72.34;97122.67;106469;1274;24370;-86
2022/09/28 09:36:44;;;;;;;41.20;23.00;;;;;;;13.20;72.41;97127.89;106447;1274;25466;-86
2022/09/28 09:40:30;;;;;;;9.80;4.20;;;;;;;13.00;72.55;97129.93;106126;1274;24267;-85
2022/09/28 09:43:34;;;;;;;13.10;5.70;;;;;;;12.79;72.64;97127.65;106443;1274;22551;-87
2022/09/28 09:46:53;;;;;;;10.50;4.40;;;;;;;12.64;72.63;97129.36;106259;1274;22540;-83
2022/09/28 09:50:23;;;;;;;;;;;;;;;;;;;;;
2022/09/28 09:52:57;;;;;;;21.70;9.00;;;;;;;12.21;72.55;97128.27;106395;1274;25473;-84
2022/09/28 09:55:41;;;;;;;13.20;6.60;;;;;;;12.04;72.56;97130.04;106186;1274;22544;-85
2022/09/28 09:58:50;;;;;;;23.00;10.60;;;;;;;11.88;72.72;97133.97;106156;1274;24280;-85
2022/09/28 10:01:47;;;;;;;8.60;3.90;;;;;;;11.78;72.84;97137.91;106384;1274;25397;-85
2022/09/28 10:04:23;;;;;;;7.90;3.30;;;;;;;11.69;72.83;97143.52;106456;1274;25810;-84
2022/09/28 10:07:00;;;;;;;11.60;3.80;;;;;;;11.61;73.04;97148.06;106132;1274;26455;-86
2022/09/28 10:09:41;;;;;;;10.00;4.00;;;;;;;11.53;73.09;97151.18;106165;1274;25634;-83
2022/09/28 10:12:23;;;;;;;7.80;3.00;;;;;;;11.42;73.18;97153.80;106425;1274;25237;-83
2022/09/28 10:15:26;;;;;;;8.20;3.00;;;;;;;11.29;73.17;97158.02;106362;1274;22556;-86
2022/09/28 10:18:14;;;;;;;7.60;2.60;;;;;;;11.11;73.16;97157.08;106394;1274;22541;-84
2022/09/28 10:21:01;;;;;;;8.10;3.30;;;;;;;11.00;73.39;97158.26;106374;1274;22502;-85
2022/09/28 10:23:36;;;;;;;8.20;3.50;;;;;;;10.93;73.51;97160.25;106213;1274;24076;-84
2022/09/28 10:26:12;;;;;;;7.10;3.10;;;;;;;10.90;73.82;97163.02;106213;1274;24331;-87
2022/09/28 10:28:51;;;;;;;9.10;3.60;;;;;;;10.90;73.70;97161.32;106090;1273;22551;-85
2022/09/28 10:31:54;;;;;;;10.90;3.40;;;;;;;10.92;73.87;97169.54;106049;1274;24290;-86
2022/09/28 10:34:45;;;;;;;9.70;3.10;;;;;;;10.99;73.74;97164.33;105702;1280;24225;-87
2022/09/28 10:37:18;;;;;;;7.70;3.50;;;;;;;11.05;74.06;97163.42;105728;1280;24382;-84
2022/09/28 10:40:49;;;;;;;10.20;3.90;;;;;;;11.08;73.99;97155.73;105521;1280;24730;-83
2022/09/28 10:43:38;;;;;;;10.30;4.40;;;;;;;11.11;73.64;97156.17;105695;1280;25452;-82
2022/09/28 10:46:13;;;;;;;12.40;5.60;;;;;;;11.05;73.69;97150.04;105822;1280;22566;-85
2022/09/28 10:48:59;;;;;;;13.10;5.60;;;;;;;11.04;73.81;97148.19;105770;1280;24273;-83
2022/09/28 10:51:44;;;;;;;13.10;5.70;;;;;;;11.08;73.86;97146.19;105937;1280;25273;-83
2022/09/28 10:54:23;;;;;;;12.30;5.70;;;;;;;11.12;73.79;97146.15;105715;1280;25474;-83
2022/09/28 10:56:56;;;;;;;9.60;4.10;;;;;;;11.16;73.92;97140.58;105952;1280;25410;-82
2022/09/28 10:59:43;;;;;;;6.70;2.70;;;;;;;11.24;74.08;97144.34;105579;1281;22673;-87
2022/09/28 11:02:52;;;;;;;7.20;3.00;;;;;;;11.29;73.78;97142.69;105722;1280;22659;-88
2022/09/28 11:05:28;;;;;;;7.60;2.70;;;;;;;11.30;73.71;97138.70;106639;1280;24257;-82
2022/09/28 11:08:06;;;;;;;7.70;2.80;;;;;;;11.27;73.63;97136.70;105816;1274;25444;-84
2022/09/28 11:10:41;;;;;;;8.80;2.70;;;;;;;11.19;73.56;97135.81;106158;1274;23014;-85
2022/09/28 11:13:13;;;;;;;9.60;3.30;;;;;;;11.11;73.59;97130.59;106312;1274;22548;-86
2022/09/28 11:15:53;;;;;;;9.50;3.30;;;;;;;11.03;73.48;97130.35;106244;1274;23053;-83
2022/09/28 11:18:52;;;;;;;13.60;4.30;;;;;;;10.94;73.69;97132.02;106333;1274;22553;-84
2022/09/28 11:21:27;;;;;;;9.10;3.60;;;;;;;10.88;73.70;97136.17;105992;1273;22536;-84
2022/09/28 11:24:39;;;;;;;11.00;3.30;;;;;;;10.85;73.92;97142.69;106286;1274;25423;-82
2022/09/28 11:27:25;;;;;;;10.40;3.40;;;;;;;10.82;73.99;97143.36;106519;1274;23944;-83
2022/09/28 11:30:02;;;;;;;10.40;3.40;;;;;;;10.81;74.13;97145.02;106330;1274;24299;-88
2022/09/28 11:32:54;;;;;;;9.70;4.20;;;;;;;10.80;73.95;97140.16;106004;1274;22704;-85
2022/09/28 11:36:50;;;;;;;12.20;5.30;;;;;;;10.82;74.03;97142.15;106262;1274;23960;-86
2022/09/28 11:39:59;;;;;;;11.70;5.40;;;;;;;10.83;74.08;97144.92;106259;1274;22572;-86
2022/09/28 11:43:03;;;;;;;14.00;6.70;;;;;;;10.82;74.16;97136.75;106265;1274;25368;-83
2022/09/28 11:45:56;;;;;;;11.60;5.20;;;;;;;10.87;74.14;97132.22;106370;1273;25324;-84
2022/09/28 11:48:40;;;;;;;9.60;3.50;;;;;;;10.93;74.20;97124.75;106145;1274;24218;-89
2022/09/28 11:51:40;;;;;;;9.30;3.20;;;;;;;10.97;73.93;97119.19;106014;1277;22558;-83
2022/09/28 11:55:10;;;;;;;5.90;2.00;;;;;;;11.08;73.89;97112.83;106123;1274;22609;-83
2022/09/28 11:57:43;;;;;;;8.50;2.40;;;;;;;11.21;73.82;97113.42;105986;1280;24342;-89
2022/09/28 12:00:40;;;;;;;11.70;2.60;;;;;;;11.29;74.03;97107.42;105808;1280;22705;-88
2022/09/28 12:03:35;;;;;;;7.90;2.70;;;;;;;11.40;73.93;97097.73;105915;1280;25230;-86
2022/09/28 12:06:06;;;;;;;8.20;3.60;;;;;;;11.50;74.15;97093.98;105651;1279;25213;-86
2022/09/28 12:09:25;;;;;;;11.70;5.30;;;;;;;11.55;74.08;97089.30;105640;1280;23521;-83
2022/09/28 12:12:47;;;;;;;12.80;5.60;;;;;;;11.56;73.97;97080.31;105595;1280;23947;-85
2022/09/28 12:15:45;;;;;;;;;;;;;;;;;;;;;
2022/09/28 12:19:08;;;;;;;8.50;2.80;;;;;;;11.61;74.11;97063.41;105854;1277;22832;-86
2022/09/28 12:22:03;;;;;;;10.40;2.60;;;;;;;11.67;74.08;97060.11;105795;1277;22611;-84
2022/09/28 12:24:41;;;;;;;7.70;2.10;;;;;;;11.76;74.17;97063.42;105592;1277;22607;-86
2022/09/28 12:27:33;;;;;;;7.00;2.10;;;;;;;11.86;74.12;97053.63;105776;1277;22842;-86
2022/09/28 12:30:21;;;;;;;7.90;2.30;;;;;;;11.98;74.16;97057.95;105609;1277;22577;-84
2022/09/28 12:32:57;;;;;;;6.60;2.30;;;;;;;12.22;74.29;97065.11;105584;1277;22560;-83
2022/09/28 12:35:54;;;;;;;7.50;2.40;;;;;;;12.42;74.28;97060.77;106069;1274;24312;-88
2022/09/28 12:38:48;;;;;;;8.00;2.30;;;;;;;12.58;74.25;97056.81;106162;1274;25596;-84
2022/09/28 12:41:42;;;;;;;8.70;2.30;;;;;;;12.66;74.00;97053.95;106437;1274;22779;-86
2022/09/28 12:44:27;;;;;;;8.40;2.70;;;;;;;12.60;73.85;97048.70;106185;1274;25411;-85
2022/09/28 12:47:08;;;;;;;6.60;2.30;;;;;;;12.55;73.95;97058.39;106262;1273;25230;-87
2022/09/28 12:50:22;;;;;;;6.70;2.30;;;;;;;12.47;73.84;97060.02;106321;1274;25461;-86
2022/09/28 12:53:30;;;;;;;6.60;2.30;;;;;;;12.34;73.85;97066.27;106017;1274;24575;-84
2022/09/28 12:56:19;;;;;;;7.00;2.30;;;;;;;12.22;73.91;97065.11;106061;1273;25226;-85
2022/09/28 12:59:04;;;;;;;6.80;2.20;;;;;;;12.16;74.07;97066.69;106165;1274;22579;-85
2022/09/28 13:02:00;;;;;;;6.90;2.00;;;;;;;12.13;74.12;97060.52;105939;1275;22570;-85
2022/09/28 13:04:52;;;;;;;5.70;1.70;;;;;;;12.12;74.13;97062.40;106129;1274;22519;-85
2022/09/28 13:07:48;;;;;;;4.60;1.80;;;;;;;12.14;74.19;97065.31;106014;1274;22604;-84
2022/09/28 13:10:58;;;;;;;4.60;1.60;;;;;;;12.17;74.28;97060.80;105997;1274;22630;-84
2022/09/28 13:14:15;;;;;;;6.10;1.80;;;;;;;12.13;74.21;97059.71;106201;1274;25206;-84
2022/09/28 13:17:07;;;;;;;7.20;2.20;;;;;;;12.04;74.27;97060.75;106122;1274;25241;-84
2022/09/28 13:19:45;;;;;;;6.90;2.30;;;;;;;11.98;74.14;97060.65;106049;1274;22525;-84